KSHD/SHD METAR and TAF weather

Enter ICAO airport designator
Station Type Date Time Source
KSHD METAR 2020/09/19 18:15 UTC NOAA

KSHD 191815Z AUTO 04008KT 10SM CLR 16/03 A3035 RMK AO2 T01560034


Station Type Date Time Source
KSHD Decoded METAR 2020/09/19 18:15 UTC NOAA

Staunton / Shenandoah, VA, United States (KSHD) 38-16N 078-54W
Sep 19, 2020 - 02:15 PM EDT / 2020.09.19 1815 UTC
Wind: from the NE (040 degrees) at 9 MPH (8 KT):0
Visibility: 10 mile(s):0
Sky conditions: clear
Temperature: 60.1 F (15.6 C)
Dew Point: 38.1 F (3.4 C)
Relative Humidity: 43%
Pressure (altimeter): 30.35 in. Hg (1027 hPa)
ob: KSHD 191815Z AUTO 04008KT 10SM CLR 16/03 A3035 RMK AO2 T01560034
cycle: 18

Station Type Date Time Source
KSHD TAF UTC NOAA

Error!

Example: see airport list